KPLN/PLN METAR and TAF weather

Enter ICAO airport designator
Station Type Date Time Source
KPLN METAR 2019/10/22 16:54 UTC NOAA

KPLN 221654Z AUTO 19009G25KT 10SM -RA BKN030 OVC037 11/06 A2935 RMK AO2 PK WND 22026/1643 RAE03B33 SLP942 P0000 T01060056


Station Type Date Time Source
KPLN Decoded METAR 2019/10/22 16:54 UTC NOAA

PELLSTON REGIONAL AIRPORT, MI, United States (KPLN) 45-34N 084-48W 217M
Oct 22, 2019 - 12:54 PM EDT / 2019.10.22 1654 UTC
Wind: from the S (190 degrees) at 10 MPH (9 KT) gusting to 29 MPH (25 KT):0
Visibility: 10 mile(s):0
Sky conditions: overcast
Weather: light rain
Precipitation last hour: A trace
Temperature: 51.1 F (10.6 C)
Dew Point: 42.1 F (5.6 C)
Relative Humidity: 71%
Pressure (altimeter): 29.35 in. Hg (993 hPa)
ob: KPLN 221654Z AUTO 19009G25KT 10SM -RA BKN030 OVC037 11/06 A2935 RMK AO2 PK WND 22026/1643 RAE03B33 SLP942 P0000 T01060056
cycle: 17

Station Type Date Time Source
KPLN TAF 2019/10/22 12:22 UTC NOAA

TAF KPLN 221120Z 2212/2312 16009KT P6SM FEW050 SCT120
FM221400 17014G22KT P6SM BKN070
FM221600 18017G26KT P6SM VCSH BKN030
FM222100 20015G25KT 6SM -SHRA OVC020

Example: see airport list